Time;durP1;ratioP1;P1;durP2;ratioP2;P2;SDS_P1;SDS_P2;PMS_P1;PMS_P2;Temp;Humidity;BMP_temperature;BMP_pressure;BME280_temperature;BME280_humidity;BME280_pressure;Samples;Min_cycle;Max_cycle;Signal;HPM_P1;HPM_P2
2023/06/30 00:00:17;;;;;;;10.45;4.70;;;17.00;99.90;;;;;;4915735;29;20228;-82
2023/06/30 00:02:47;;;;;;;13.98;4.57;;;17.00;99.90;;;;;;4917298;29;20184;-82
2023/06/30 00:05:16;;;;;;;12.68;4.50;;;17.00;99.90;;;;;;4916306;29;20227;-82
2023/06/30 00:07:45;;;;;;;16.77;4.30;;;16.90;99.90;;;;;;4908575;29;20208;-81
2023/06/30 00:10:11;;;;;;;11.05;4.00;;;16.90;99.90;;;;;;4906306;29;20212;-82
2023/06/30 00:12:37;;;;;;;12.45;3.95;;;16.80;99.90;;;;;;4916656;29;20223;-81
2023/06/30 00:15:03;;;;;;;12.20;4.07;;;16.80;99.90;;;;;;4899199;29;20192;-81
2023/06/30 00:17:28;;;;;;;15.85;4.13;;;16.80;99.90;;;;;;4914940;29;20195;-83
2023/06/30 00:19:57;;;;;;;14.27;3.97;;;16.70;99.90;;;;;;4916901;29;20188;-81
2023/06/30 00:22:23;;;;;;;9.05;3.97;;;16.70;99.90;;;;;;4916981;29;20239;-81
2023/06/30 00:24:53;;;;;;;13.48;3.90;;;16.60;99.90;;;;;;4916531;29;20184;-82
2023/06/30 00:27:19;;;;;;;17.90;4.28;;;16.60;99.90;;;;;;4916606;29;20657;-82
2023/06/30 00:29:45;;;;;;;15.55;3.90;;;16.60;99.90;;;;;;4884398;29;20259;-82
2023/06/30 00:32:10;;;;;;;13.68;4.38;;;16.60;99.90;;;;;;4899466;29;20242;-81
2023/06/30 00:34:36;;;;;;;9.73;3.67;;;16.60;99.90;;;;;;4916977;29;20210;-81
2023/06/30 00:37:02;;;;;;;10.70;3.88;;;16.60;99.90;;;;;;4902651;29;20188;-81
2023/06/30 00:39:28;;;;;;;12.82;3.38;;;16.60;99.90;;;;;;4902042;29;20232;-81
2023/06/30 00:41:54;;;;;;;14.95;3.60;;;16.50;99.90;;;;;;4915349;29;20265;-82
2023/06/30 00:44:20;;;;;;;18.27;4.05;;;16.50;99.90;;;;;;4919313;29;20275;-83
2023/06/30 00:46:45;;;;;;;19.70;3.80;;;16.50;99.90;;;;;;4918427;29;20435;-82
2023/06/30 00:49:11;;;;;;;12.07;4.00;;;16.40;99.90;;;;;;4919067;29;20196;-81
2023/06/30 00:51:39;;;;;;;14.60;3.88;;;16.40;99.90;;;;;;4903049;29;20203;-82
2023/06/30 00:54:05;;;;;;;10.35;3.25;;;16.40;99.90;;;;;;4902989;29;20184;-82
2023/06/30 00:56:31;;;;;;;14.65;3.83;;;16.40;99.90;;;;;;4912811;29;20678;-81
2023/06/30 00:58:57;;;;;;;13.85;3.72;;;16.40;99.90;;;;;;4903503;29;20184;-81
2023/06/30 01:01:33;;;;;;;14.82;3.92;;;16.30;99.90;;;;;;4919929;29;20188;-81
2023/06/30 01:04:06;;;;;;;12.45;3.80;;;16.30;99.90;;;;;;4901637;29;20625;-81
2023/06/30 01:06:42;;;;;;;17.85;3.95;;;16.30;99.90;;;;;;4908310;29;20216;-81
2023/06/30 01:09:15;;;;;;;10.48;3.65;;;16.20;99.90;;;;;;4910425;29;20207;-80
2023/06/30 01:11:42;;;;;;;11.60;3.75;;;16.30;99.90;;;;;;4918722;29;20204;-81
2023/06/30 01:14:10;;;;;;;13.07;3.88;;;16.20;99.90;;;;;;4918514;29;20740;-80
2023/06/30 01:16:38;;;;;;;13.00;3.70;;;16.20;99.90;;;;;;4906584;29;20665;-81
2023/06/30 01:19:10;;;;;;;16.15;3.90;;;16.20;99.90;;;;;;4899729;29;20216;-81
2023/06/30 01:21:37;;;;;;;16.63;4.13;;;16.20;99.90;;;;;;4909881;29;20296;-81
2023/06/30 01:24:07;;;;;;;11.15;3.65;;;16.20;99.90;;;;;;4902746;29;20212;-82
2023/06/30 01:26:34;;;;;;;17.30;3.83;;;16.20;99.90;;;;;;4914867;29;20211;-81
2023/06/30 01:29:06;;;;;;;17.08;3.95;;;16.10;99.90;;;;;;4899416;29;20197;-81
2023/06/30 01:31:32;;;;;;;10.82;3.60;;;16.10;99.90;;;;;;4912559;29;20607;-81
2023/06/30 01:34:02;;;;;;;10.40;3.95;;;16.10;99.90;;;;;;4919347;29;20180;-82
2023/06/30 01:36:28;;;;;;;14.18;4.03;;;16.00;99.90;;;;;;4917775;29;20724;-82
2023/06/30 01:38:54;;;;;;;10.95;3.65;;;16.00;99.90;;;;;;4918643;29;20184;-82
2023/06/30 01:41:21;;;;;;;10.20;3.70;;;16.00;99.90;;;;;;4937229;29;20200;-82
2023/06/30 01:43:49;;;;;;;16.70;4.05;;;16.00;99.90;;;;;;4938182;29;20210;-82
2023/06/30 01:46:15;;;;;;;13.43;4.30;;;15.90;99.90;;;;;;4928412;29;20220;-83
2023/06/30 01:48:43;;;;;;;13.82;4.00;;;15.90;99.90;;;;;;4918140;29;20199;-83
2023/06/30 01:51:11;;;;;;;9.20;3.92;;;15.90;99.90;;;;;;4916748;29;20271;-81
2023/06/30 01:53:37;;;;;;;12.52;4.35;;;15.90;99.90;;;;;;4919359;29;20264;-82
2023/06/30 01:56:03;;;;;;;16.05;4.07;;;15.90;99.90;;;;;;4927277;29;20202;-80
2023/06/30 01:58:31;;;;;;;11.73;3.88;;;15.90;99.90;;;;;;4921216;29;20555;-82
2023/06/30 02:00:57;;;;;;;10.75;3.83;;;15.80;99.90;;;;;;4935627;29;20219;-82
2023/06/30 02:03:23;;;;;;;17.65;3.83;;;15.80;99.90;;;;;;4915940;29;20750;-82
2023/06/30 02:05:49;;;;;;;12.02;4.00;;;15.80;99.90;;;;;;4893220;29;20243;-82
2023/06/30 02:08:15;;;;;;;9.73;3.97;;;15.80;99.90;;;;;;4920786;29;20296;-83
2023/06/30 02:10:41;;;;;;;11.70;3.97;;;15.80;99.90;;;;;;4937136;29;20187;-82
2023/06/30 02:13:06;;;;;;;15.48;4.65;;;15.70;99.90;;;;;;4920910;29;20556;-82
2023/06/30 02:15:32;;;;;;;14.38;4.43;;;15.80;99.90;;;;;;4920734;29;20201;-82
2023/06/30 02:17:59;;;;;;;11.85;4.03;;;15.70;99.90;;;;;;4921182;29;20274;-81
2023/06/30 02:20:25;;;;;;;12.90;4.18;;;15.70;99.90;;;;;;4918430;29;20700;-80
2023/06/30 02:22:51;;;;;;;13.00;4.20;;;15.70;99.90;;;;;;4902142;29;20212;-80
2023/06/30 02:25:19;;;;;;;12.18;4.30;;;15.60;99.90;;;;;;4917377;29;21724;-81
2023/06/30 02:27:45;;;;;;;17.60;4.40;;;15.60;99.90;;;;;;4918440;29;20587;-81
2023/06/30 02:30:16;;;;;;;14.63;4.38;;;15.50;99.90;;;;;;4903732;29;20226;-81
2023/06/30 02:32:42;;;;;;;13.32;4.10;;;15.50;99.90;;;;;;4905007;29;20223;-82
2023/06/30 02:35:09;;;;;;;12.50;4.45;;;15.50;99.90;;;;;;4937218;29;20242;-83
2023/06/30 02:37:35;;;;;;;9.73;4.10;;;15.50;99.90;;;;;;4909638;29;20194;-83
2023/06/30 02:40:01;;;;;;;15.57;4.55;;;15.50;99.90;;;;;;4919492;29;20331;-82
2023/06/30 02:42:27;;;;;;;13.68;4.47;;;15.40;99.90;;;;;;4920183;29;20675;-81
2023/06/30 02:44:52;;;;;;;16.25;4.65;;;15.40;99.90;;;;;;4904668;29;20270;-83
2023/06/30 02:47:18;;;;;;;9.75;4.03;;;15.40;99.90;;;;;;4904875;29;20338;-81
2023/06/30 02:49:44;;;;;;;12.85;4.50;;;15.40;99.90;;;;;;4937087;29;20274;-83
2023/06/30 02:52:10;;;;;;;14.57;4.43;;;15.40;99.90;;;;;;4898971;29;20192;-82
2023/06/30 02:54:36;;;;;;;9.82;4.18;;;15.40;99.90;;;;;;4885516;29;20192;-81
2023/06/30 02:57:02;;;;;;;15.80;5.05;;;15.40;99.90;;;;;;4916802;29;20524;-81
2023/06/30 02:59:28;;;;;;;9.35;4.38;;;15.40;99.90;;;;;;4888090;29;20188;-81
2023/06/30 03:01:54;;;;;;;11.63;4.85;;;15.30;99.90;;;;;;4917355;29;20195;-81
2023/06/30 03:04:20;;;;;;;14.48;4.57;;;15.30;99.90;;;;;;4903133;29;20531;-80
2023/06/30 03:06:46;;;;;;;13.40;4.40;;;15.30;99.90;;;;;;4919308;29;20687;-82
2023/06/30 03:09:14;;;;;;;13.90;4.80;;;15.30;99.90;;;;;;4919996;29;20676;-81
2023/06/30 03:11:40;;;;;;;12.85;4.38;;;15.30;99.90;;;;;;4879914;29;20274;-82
2023/06/30 03:14:06;;;;;;;12.60;4.45;;;15.30;99.90;;;;;;4903853;29;20183;-82
2023/06/30 03:16:40;;;;;;;9.50;4.30;;;15.30;99.90;;;;;;4892810;29;20200;-81
2023/06/30 03:19:06;;;;;;;12.50;4.47;;;15.20;99.90;;;;;;4901241;29;20759;-80
2023/06/30 03:21:32;;;;;;;13.05;5.00;;;15.20;99.90;;;;;;4909332;29;20271;-81
2023/06/30 03:23:58;;;;;;;16.42;5.43;;;15.20;99.90;;;;;;4919444;29;20644;-81
2023/06/30 03:26:23;;;;;;;7.65;4.35;;;15.20;99.90;;;;;;4903269;29;20583;-81
2023/06/30 03:28:49;;;;;;;11.23;4.28;;;15.20;99.90;;;;;;4903844;29;20552;-81
2023/06/30 03:31:15;;;;;;;13.13;4.28;;;15.20;99.90;;;;;;4903674;29;20286;-81
2023/06/30 03:33:41;;;;;;;15.60;4.15;;;15.20;99.90;;;;;;4919731;29;20282;-81
2023/06/30 03:36:08;;;;;;;7.50;3.80;;;15.10;99.90;;;;;;4931748;29;20283;-82
2023/06/30 03:38:33;;;;;;;11.50;4.15;;;15.10;99.90;;;;;;4900909;29;20180;-81
2023/06/30 03:40:59;;;;;;;12.57;4.57;;;15.10;99.90;;;;;;4907099;29;20281;-81
2023/06/30 03:43:28;;;;;;;10.07;3.90;;;15.10;99.90;;;;;;4936325;29;20275;-81
2023/06/30 03:45:54;;;;;;;10.35;3.90;;;15.00;99.90;;;;;;4919125;29;20595;-81
2023/06/30 03:48:20;;;;;;;16.85;4.43;;;15.00;99.90;;;;;;4903710;29;20277;-81
2023/06/30 03:50:51;;;;;;;9.82;4.07;;;15.00;99.90;;;;;;4921238;29;20225;-82
2023/06/30 03:53:17;;;;;;;10.68;3.92;;;15.00;99.90;;;;;;4915518;29;20160;-81
2023/06/30 03:55:43;;;;;;;14.77;4.57;;;15.00;99.90;;;;;;4920434;29;20538;-81
2023/06/30 03:58:09;;;;;;;10.82;4.03;;;15.00;99.90;;;;;;4933388;29;20187;-83
2023/06/30 04:00:35;;;;;;;11.27;4.07;;;15.00;99.90;;;;;;4919024;29;20247;-82
2023/06/30 04:03:00;;;;;;;14.23;4.38;;;15.00;99.90;;;;;;4903068;29;20194;-81
2023/06/30 04:05:26;;;;;;;10.98;4.38;;;15.00;99.90;;;;;;4936268;29;20242;-81
2023/06/30 04:07:52;;;;;;;11.27;4.22;;;15.00;99.90;;;;;;4935584;29;20246;-81
2023/06/30 04:10:18;;;;;;;11.63;4.07;;;15.00;99.90;;;;;;4903458;29;20198;-81
2023/06/30 04:12:43;;;;;;;9.27;4.45;;;15.00;99.90;;;;;;4931558;29;20305;-81
2023/06/30 04:15:10;;;;;;;15.23;4.25;;;15.00;99.90;;;;;;4916237;29;20196;-80
2023/06/30 04:17:39;;;;;;;12.07;3.95;;;15.00;99.90;;;;;;4916987;29;20302;-82
2023/06/30 04:20:14;;;;;;;15.68;4.30;;;15.10;99.90;;;;;;4902128;29;20180;-80
2023/06/30 04:22:40;;;;;;;13.13;4.53;;;15.10;99.90;;;;;;4925910;29;20243;-82
2023/06/30 04:25:06;;;;;;;11.88;4.60;;;15.10;99.90;;;;;;4916490;29;20188;-82
2023/06/30 04:27:32;;;;;;;10.85;4.38;;;15.10;99.90;;;;;;4929310;29;20207;-81
2023/06/30 04:29:58;;;;;;;11.73;4.43;;;15.10;99.90;;;;;;4917914;29;20222;-81
2023/06/30 04:32:23;;;;;;;10.32;4.25;;;15.20;99.90;;;;;;4902067;29;20278;-80
2023/06/30 04:34:49;;;;;;;11.15;4.32;;;15.20;99.90;;;;;;4929995;29;20202;-78
2023/06/30 04:37:15;;;;;;;17.63;4.88;;;15.30;99.90;;;;;;4914306;29;20187;-81
2023/06/30 04:39:42;;;;;;;14.15;4.47;;;15.40;99.90;;;;;;4922852;29;20286;-81
2023/06/30 04:42:08;;;;;;;9.68;4.05;;;15.40;99.90;;;;;;4928284;29;20213;-80
2023/06/30 04:44:34;;;;;;;13.93;4.20;;;15.50;99.90;;;;;;4935246;29;20210;-80
2023/06/30 04:47:00;;;;;;;15.20;4.40;;;15.50;99.90;;;;;;4917537;29;20218;-80
2023/06/30 04:49:26;;;;;;;9.88;4.40;;;15.50;99.90;;;;;;4926529;29;20683;-80
2023/06/30 04:51:52;;;;;;;9.85;4.07;;;15.50;99.90;;;;;;4917051;29;20562;-81
2023/06/30 04:54:19;;;;;;;13.80;4.10;;;15.50;99.90;;;;;;4934743;29;20183;-80
2023/06/30 04:56:45;;;;;;;12.00;4.57;;;15.50;99.90;;;;;;4934382;29;20191;-80
2023/06/30 04:59:10;;;;;;;15.02;4.60;;;15.50;99.90;;;;;;4935338;29;20183;-80
2023/06/30 05:01:36;;;;;;;10.75;4.43;;;15.50;99.90;;;;;;4892422;29;20204;-81
2023/06/30 05:04:02;;;;;;;10.20;4.60;;;15.50;99.90;;;;;;4923740;29;20188;-81
2023/06/30 05:06:28;;;;;;;13.10;4.47;;;15.60;99.90;;;;;;4920995;29;20297;-81
2023/06/30 05:08:53;;;;;;;8.95;4.30;;;15.50;99.90;;;;;;4935330;29;20184;-84
2023/06/30 05:11:19;;;;;;;10.80;4.25;;;15.60;99.90;;;;;;4930644;29;20183;-80
2023/06/30 05:13:45;;;;;;;14.85;4.57;;;15.60;99.90;;;;;;4916285;29;20184;-80
2023/06/30 05:16:14;;;;;;;12.52;4.57;;;15.60;99.90;;;;;;4899401;29;20180;-80
2023/06/30 05:18:39;;;;;;;11.85;4.32;;;15.60;99.90;;;;;;4917644;29;20236;-81
2023/06/30 05:21:08;;;;;;;8.43;4.20;;;15.70;99.90;;;;;;4917553;29;20183;-81
2023/06/30 05:23:34;;;;;;;18.00;4.20;;;15.70;99.90;;;;;;4920742;29;20202;-81
2023/06/30 05:26:00;;;;;;;11.85;4.20;;;15.70;99.90;;;;;;4920637;29;20299;-83
2023/06/30 05:28:25;;;;;;;10.77;4.40;;;15.70;99.90;;;;;;4921232;29;20641;-82
2023/06/30 05:30:51;;;;;;;10.73;4.20;;;15.80;99.90;;;;;;4921631;29;20624;-81
2023/06/30 05:33:17;;;;;;;9.10;3.80;;;15.80;99.90;;;;;;4936680;29;20573;-82
2023/06/30 05:35:43;;;;;;;13.80;3.75;;;15.90;99.90;;;;;;4919165;29;20211;-81
2023/06/30 05:38:08;;;;;;;9.10;3.45;;;15.90;99.90;;;;;;4918166;29;20228;-82
2023/06/30 05:40:34;;;;;;;11.27;3.60;;;16.00;99.90;;;;;;4936855;29;20707;-82
2023/06/30 05:43:00;;;;;;;12.55;4.10;;;16.00;99.90;;;;;;4935641;29;20185;-81
2023/06/30 05:45:26;;;;;;;10.88;3.70;;;16.10;99.90;;;;;;4920782;29;20215;-83
2023/06/30 05:47:51;;;;;;;13.57;3.78;;;16.10;99.90;;;;;;4900075;29;20205;-82
2023/06/30 05:50:17;;;;;;;7.43;3.55;;;16.20;99.90;;;;;;4913830;29;20185;-82
2023/06/30 05:52:43;;;;;;;9.80;4.00;;;16.20;99.90;;;;;;4930378;29;20187;-82
2023/06/30 05:55:09;;;;;;;8.68;4.00;;;16.30;99.90;;;;;;4936845;29;20613;-81
2023/06/30 05:57:35;;;;;;;16.50;4.22;;;16.30;99.90;;;;;;4934821;29;20188;-82
2023/06/30 06:00:00;;;;;;;10.25;3.85;;;16.40;99.90;;;;;;4923249;29;20279;-82
2023/06/30 06:02:26;;;;;;;9.57;3.60;;;16.40;99.90;;;;;;4930164;29;20681;-85
2023/06/30 06:04:52;;;;;;;9.43;4.15;;;16.50;99.90;;;;;;4932730;29;20235;-81
2023/06/30 06:07:18;;;;;;;11.40;4.20;;;16.50;99.90;;;;;;4925994;29;20592;-81
2023/06/30 06:09:43;;;;;;;10.80;3.75;;;16.60;99.90;;;;;;4920281;29;20715;-81
2023/06/30 06:12:09;;;;;;;10.98;3.60;;;16.60;99.90;;;;;;4899928;29;20223;-82
2023/06/30 06:14:35;;;;;;;9.68;3.78;;;16.70;99.90;;;;;;4925248;29;20250;-81
2023/06/30 06:17:01;;;;;;;7.68;3.42;;;16.80;99.90;;;;;;4933685;29;20590;-81
2023/06/30 06:19:27;;;;;;;11.27;4.00;;;16.80;99.90;;;;;;4904401;29;20557;-81
2023/06/30 06:21:52;;;;;;;13.45;3.85;;;16.80;99.90;;;;;;4937165;29;20191;-82
2023/06/30 06:24:18;;;;;;;11.45;3.40;;;16.90;99.90;;;;;;4904472;29;20195;-81
2023/06/30 06:26:44;;;;;;;5.85;3.20;;;17.00;99.90;;;;;;4919959;29;20218;-79
2023/06/30 06:29:14;;;;;;;15.38;3.80;;;17.00;99.90;;;;;;4932098;29;20192;-80
2023/06/30 06:31:40;;;;;;;10.38;3.50;;;17.10;99.90;;;;;;4927787;29;20234;-80
2023/06/30 06:34:05;;;;;;;7.85;3.25;;;17.10;99.90;;;;;;4936558;29;20226;-80
2023/06/30 06:36:31;;;;;;;13.55;3.55;;;17.10;99.90;;;;;;4919544;29;20199;-80
2023/06/30 06:38:57;;;;;;;10.57;3.42;;;17.20;99.90;;;;;;4937502;29;20663;-81
2023/06/30 06:41:23;;;;;;;9.05;3.28;;;17.30;99.90;;;;;;4885342;29;20194;-81
2023/06/30 06:43:48;;;;;;;11.40;3.60;;;17.40;99.90;;;;;;4931473;29;20247;-79
2023/06/30 06:46:14;;;;;;;11.23;3.30;;;17.40;99.90;;;;;;4904316;29;20307;-80
2023/06/30 06:48:40;;;;;;;7.68;2.90;;;17.50;99.90;;;;;;4920089;29;20195;-80
2023/06/30 06:51:06;;;;;;;6.53;2.60;;;17.60;99.90;;;;;;4920295;29;20242;-81
2023/06/30 06:53:33;;;;;;;5.40;2.40;;;17.70;99.90;;;;;;4903249;29;20191;-82
2023/06/30 06:55:59;;;;;;;9.10;2.53;;;17.70;99.90;;;;;;4920138;29;20191;-80
2023/06/30 06:58:28;;;;;;;8.32;2.70;;;17.80;99.90;;;;;;4936670;29;20183;-79
2023/06/30 07:00:55;;;;;;;6.95;2.25;;;17.90;99.90;;;;;;4936443;29;20197;-81
2023/06/30 07:03:21;;;;;;;5.75;2.22;;;18.00;99.90;;;;;;4935897;29;20263;-82
2023/06/30 07:05:47;;;;;;;5.75;2.42;;;18.10;99.90;;;;;;4936284;29;20302;-81
2023/06/30 07:08:15;;;;;;;7.70;2.88;;;18.20;99.90;;;;;;4919183;29;20191;-82
2023/06/30 07:10:41;;;;;;;4.93;2.40;;;18.20;99.90;;;;;;4929115;29;20191;-81
2023/06/30 07:13:07;;;;;;;4.70;2.40;;;18.30;99.90;;;;;;4919996;29;20649;-81
2023/06/30 07:15:34;;;;;;;10.45;2.65;;;18.30;99.90;;;;;;4929654;29;20187;-81
2023/06/30 07:18:00;;;;;;;7.40;2.40;;;18.40;99.90;;;;;;4926170;29;20239;-82
2023/06/30 07:20:26;;;;;;;15.05;3.20;;;18.50;99.90;;;;;;4919289;29;20183;-81
2023/06/30 07:22:54;;;;;;;12.95;2.58;;;18.60;99.90;;;;;;4936352;29;20187;-82
2023/06/30 07:25:20;;;;;;;6.55;2.60;;;18.60;99.90;;;;;;4919288;29;20222;-81
2023/06/30 07:27:52;;;;;;;9.30;2.50;;;18.60;99.90;;;;;;4936458;29;20191;-80
2023/06/30 07:30:19;;;;;;;8.65;2.33;;;18.70;99.90;;;;;;4920485;29;20195;-80
2023/06/30 07:32:45;;;;;;;10.68;2.38;;;18.70;99.90;;;;;;4935837;29;20189;-80
2023/06/30 07:35:11;;;;;;;11.07;2.40;;;18.70;99.90;;;;;;4924398;29;20533;-79
2023/06/30 07:37:37;;;;;;;8.18;2.47;;;18.70;99.90;;;;;;4898762;29;20608;-80
2023/06/30 07:40:03;;;;;;;5.28;1.95;;;18.70;99.90;;;;;;4926914;29;20322;-81
2023/06/30 07:42:29;;;;;;;6.63;2.00;;;18.70;99.90;;;;;;4936281;29;20181;-81
2023/06/30 07:44:54;;;;;;;9.63;2.15;;;18.70;99.90;;;;;;4918367;29;20191;-81
2023/06/30 07:47:20;;;;;;;7.47;2.10;;;18.70;99.90;;;;;;4908196;29;20595;-81
2023/06/30 07:49:46;;;;;;;7.97;1.90;;;18.80;99.90;;;;;;4917208;29;20244;-80
2023/06/30 07:52:12;;;;;;;5.10;1.60;;;18.90;99.90;;;;;;4931894;29;20559;-80
2023/06/30 07:54:37;;;;;;;8.85;2.10;;;19.00;99.90;;;;;;4918030;29;20191;-80
2023/06/30 07:57:03;;;;;;;12.02;2.15;;;19.10;99.90;;;;;;4928067;29;20562;-79
2023/06/30 07:59:29;;;;;;;8.23;2.20;;;19.20;99.90;;;;;;4918535;29;20191;-80
2023/06/30 08:01:55;;;;;;;5.25;1.90;;;19.40;99.90;;;;;;4935948;29;20218;-79
2023/06/30 08:04:21;;;;;;;6.80;1.83;;;19.50;99.90;;;;;;4919080;29;20187;-79
2023/06/30 08:06:47;;;;;;;6.63;1.60;;;19.60;99.90;;;;;;4906748;29;20212;-79
2023/06/30 08:09:13;;;;;;;7.30;2.88;;;19.60;99.90;;;;;;4916937;29;20232;-80
2023/06/30 08:11:39;;;;;;;8.55;2.65;;;19.60;99.90;;;;;;4916477;29;20304;-82
2023/06/30 08:14:06;;;;;;;12.07;2.08;;;19.50;99.90;;;;;;4894941;29;20636;-80
2023/06/30 08:16:32;;;;;;;9.90;2.03;;;19.50;99.90;;;;;;4930365;29;20206;-80
2023/06/30 08:18:58;;;;;;;8.52;1.80;;;19.40;99.90;;;;;;4918588;29;20236;-82
2023/06/30 08:21:25;;;;;;;7.43;1.90;;;19.40;99.90;;;;;;4909467;29;20194;-79
2023/06/30 08:23:50;;;;;;;12.30;1.88;;;19.50;99.90;;;;;;4918418;29;20187;-81
2023/06/30 08:26:16;;;;;;;5.40;2.00;;;19.60;99.90;;;;;;4916740;29;20699;-79
2023/06/30 08:28:42;;;;;;;6.07;1.85;;;19.70;99.90;;;;;;4904361;29;20200;-79
2023/06/30 08:31:08;;;;;;;9.00;1.88;;;19.80;99.90;;;;;;4917605;29;20187;-80
2023/06/30 08:33:33;;;;;;;9.20;2.15;;;19.90;99.90;;;;;;4919161;29;20187;-79
2023/06/30 08:36:01;;;;;;;8.07;1.90;;;20.10;99.90;;;;;;4936683;29;20191;-81
2023/06/30 08:38:27;;;;;;;9.35;1.92;;;20.10;99.90;;;;;;4918366;29;20183;-79
2023/06/30 08:40:53;;;;;;;3.95;1.50;;;20.30;99.90;;;;;;4908424;29;20235;-80
2023/06/30 08:43:22;;;;;;;8.93;1.83;;;20.40;99.90;;;;;;4911159;29;20203;-82
2023/06/30 08:45:48;;;;;;;6.03;1.85;;;20.50;99.90;;;;;;4918750;29;20211;-81
2023/06/30 08:48:18;;;;;;;6.40;1.50;;;20.70;99.90;;;;;;4928282;29;20199;-81
2023/06/30 08:50:45;;;;;;;7.50;1.60;;;20.80;99.90;;;;;;4934586;29;20198;-81
2023/06/30 08:53:11;;;;;;;4.88;1.45;;;20.80;99.90;;;;;;4935892;29;20626;-81
2023/06/30 08:55:37;;;;;;;8.68;1.52;;;20.80;99.90;;;;;;4935631;29;20274;-81
2023/06/30 08:58:04;;;;;;;7.38;1.55;;;20.90;99.90;;;;;;4920701;29;20198;-81
2023/06/30 09:00:30;;;;;;;5.07;1.92;;;20.80;99.90;;;;;;4938964;29;20246;-81
2023/06/30 09:02:58;;;;;;;6.45;1.45;;;20.80;99.90;;;;;;4920543;29;20195;-81
2023/06/30 09:05:25;;;;;;;6.45;1.50;;;20.80;99.90;;;;;;4937734;29;20204;-82
2023/06/30 09:07:56;;;;;;;7.70;1.60;;;20.70;99.90;;;;;;4912709;29;20195;-82
2023/06/30 09:10:26;;;;;;;5.95;1.50;;;20.70;99.90;;;;;;4905297;29;20194;-84
2023/06/30 09:12:57;;;;;;;8.15;1.50;;;20.80;99.90;;;;;;4920339;29;20202;-84
2023/06/30 09:15:24;;;;;;;6.25;1.60;;;20.90;99.90;;;;;;4937979;29;20198;-88
2023/06/30 09:17:52;;;;;;;6.50;1.75;;;20.90;99.90;;;;;;4908873;29;20184;-84
2023/06/30 09:20:20;;;;;;;6.85;1.52;;;21.00;99.90;;;;;;4935271;29;20192;-82
2023/06/30 09:22:46;;;;;;;5.05;1.60;;;21.10;99.90;;;;;;4921986;29;20200;-81
2023/06/30 09:25:27;;;;;;;12.85;1.70;;;21.20;99.90;;;;;;4903313;29;20633;-81
2023/06/30 09:27:56;;;;;;;7.78;1.85;;;21.30;99.90;;;;;;4902776;29;20186;-80
2023/06/30 09:30:36;;;;;;;4.60;1.42;;;21.40;99.90;;;;;;4935482;29;20198;-82
2023/06/30 09:33:02;;;;;;;5.03;1.23;;;21.30;99.90;;;;;;4894872;29;20225;-81
2023/06/30 09:35:45;;;;;;;3.60;1.50;;;21.40;99.90;;;;;;4909318;29;20203;-81
2023/06/30 09:38:16;;;;;;;7.20;1.42;;;21.40;99.90;;;;;;4920117;29;20214;-80
2023/06/30 09:40:47;;;;;;;4.78;1.50;;;21.50;99.90;;;;;;4937611;29;20231;-81
2023/06/30 09:43:21;;;;;;;4.07;1.38;;;21.60;99.90;;;;;;4927734;29;20563;-81
2023/06/30 09:45:56;;;;;;;8.95;1.60;;;21.70;99.90;;;;;;4936859;29;20215;-80
2023/06/30 09:48:55;;;;;;;5.45;1.35;;;21.70;99.90;;;;;;4919188;29;20183;-80
2023/06/30 09:51:21;;;;;;;2.83;1.30;;;21.80;99.90;;;;;;4898536;29;20227;-80
2023/06/30 09:53:50;;;;;;;4.93;1.10;;;21.80;99.90;;;;;;4918345;29;20183;-80
2023/06/30 09:56:23;;;;;;;3.92;1.30;;;21.90;99.90;;;;;;4908049;29;20188;-81
2023/06/30 09:58:55;;;;;;;5.35;1.40;;;22.00;99.90;;;;;;4918842;29;20236;-81
2023/06/30 10:01:21;;;;;;;6.43;1.60;;;22.10;99.90;;;;;;4918942;29;20188;-82
2023/06/30 10:03:48;;;;;;;3.55;1.40;;;22.20;99.50;;;;;;4917769;29;20188;-79
2023/06/30 10:06:20;;;;;;;3.03;0.95;;;22.20;99.00;;;;;;4920461;29;20262;-80
2023/06/30 10:08:49;;;;;;;2.75;1.42;;;22.30;98.50;;;;;;4870582;29;20244;-80
2023/06/30 10:11:15;;;;;;;5.07;1.35;;;22.30;98.10;;;;;;4918340;29;20191;-81
2023/06/30 10:13:43;;;;;;;4.15;1.38;;;22.40;97.90;;;;;;4901345;29;20550;-80
2023/06/30 10:16:09;;;;;;;5.00;1.30;;;22.50;97.50;;;;;;4938306;29;20198;-80
2023/06/30 10:18:44;;;;;;;6.43;1.30;;;22.60;97.30;;;;;;4905299;29;20187;-80
2023/06/30 10:21:10;;;;;;;4.05;1.25;;;22.70;96.50;;;;;;4920377;29;20191;-82
2023/06/30 10:23:37;;;;;;;5.20;1.30;;;22.80;96.00;;;;;;4936427;29;20180;-82
2023/06/30 10:26:05;;;;;;;6.97;1.67;;;22.90;95.50;;;;;;4937497;29;20659;-81
2023/06/30 10:28:34;;;;;;;10.38;1.27;;;22.90;94.90;;;;;;4903048;29;20194;-80
2023/06/30 10:31:00;;;;;;;4.30;1.27;;;22.90;94.30;;;;;;4937229;29;20245;-81
2023/06/30 10:33:26;;;;;;;17.90;1.67;;;22.90;93.40;;;;;;4920712;29;20663;-81
2023/06/30 10:35:52;;;;;;;5.55;1.30;;;22.90;93.00;;;;;;4917205;29;20188;-81
2023/06/30 10:38:18;;;;;;;3.60;1.25;;;23.00;92.70;;;;;;4922893;29;20176;-81
2023/06/30 10:40:45;;;;;;;2.92;1.08;;;23.00;92.30;;;;;;4936828;29;20227;-82
2023/06/30 10:43:13;;;;;;;4.38;1.30;;;23.00;92.00;;;;;;4937344;29;20175;-81
2023/06/30 10:46:07;;;;;;;2.97;1.17;;;23.10;91.80;;;;;;4936943;29;20294;-82
2023/06/30 10:48:33;;;;;;;5.32;1.50;;;23.20;91.70;;;;;;4904983;29;20338;-81
2023/06/30 10:50:59;;;;;;;4.07;1.52;;;23.30;91.50;;;;;;4904253;29;20692;-82
2023/06/30 10:53:27;;;;;;;4.35;1.75;;;23.40;91.10;;;;;;4918579;29;20200;-82
2023/06/30 10:55:58;;;;;;;4.80;1.50;;;23.50;90.70;;;;;;4920381;29;20711;-81
2023/06/30 10:58:26;;;;;;;5.43;1.58;;;23.70;90.50;;;;;;4924912;29;20344;-83
2023/06/30 11:01:05;;;;;;;8.32;1.52;;;23.80;90.30;;;;;;4886052;29;20192;-83
2023/06/30 11:04:06;;;;;;;7.55;1.40;;;23.80;90.00;;;;;;4923408;29;20569;-81
2023/06/30 11:06:35;;;;;;;3.05;1.40;;;23.90;89.80;;;;;;4864077;29;20636;-81
2023/06/30 11:09:03;;;;;;;7.85;1.65;;;24.00;88.10;;;;;;4936084;29;20242;-82
2023/06/30 11:11:29;;;;;;;3.50;1.50;;;24.00;85.60;;;;;;4927418;29;20179;-84
2023/06/30 11:14:05;;;;;;;3.50;1.33;;;24.00;83.70;;;;;;4904495;29;20536;-85
2023/06/30 11:17:06;;;;;;;3.80;1.60;;;24.00;82.60;;;;;;4936391;29;20187;-81
2023/06/30 11:19:36;;;;;;;7.47;1.60;;;24.10;82.00;;;;;;4935220;29;20650;-85
2023/06/30 11:22:21;;;;;;;6.00;1.45;;;24.20;81.90;;;;;;4920365;29;20192;-83
2023/06/30 11:24:47;;;;;;;4.70;1.42;;;24.20;82.20;;;;;;4900758;29;20598;-81
2023/06/30 11:27:15;;;;;;;7.07;1.85;;;24.20;82.20;;;;;;4917564;29;20239;-82
2023/06/30 11:29:41;;;;;;;6.93;1.58;;;24.20;82.10;;;;;;4917271;29;20225;-81
2023/06/30 11:32:07;;;;;;;5.57;1.70;;;24.20;81.80;;;;;;4917831;29;20631;-82
2023/06/30 11:34:33;;;;;;;4.63;1.52;;;24.20;81.50;;;;;;4920336;29;20680;-82
2023/06/30 11:37:04;;;;;;;6.57;2.00;;;24.20;81.50;;;;;;4918901;29;20278;-82
2023/06/30 11:39:30;;;;;;;6.68;1.95;;;24.20;81.30;;;;;;4918919;29;20675;-82
2023/06/30 11:41:56;;;;;;;4.93;1.77;;;24.20;81.50;;;;;;4934492;29;20214;-81
2023/06/30 11:44:22;;;;;;;5.10;1.50;;;24.10;80.00;;;;;;4903690;29;20666;-82
2023/06/30 11:46:48;;;;;;;6.65;1.98;;;24.00;79.70;;;;;;4918548;29;20752;-83
2023/06/30 11:49:13;;;;;;;6.75;1.70;;;24.00;79.40;;;;;;4900890;29;20206;-83
2023/06/30 11:51:39;;;;;;;3.92;1.65;;;24.00;79.50;;;;;;4923962;29;20330;-82
2023/06/30 11:54:06;;;;;;;3.17;1.50;;;24.00;80.10;;;;;;4935829;29;20187;-82
2023/06/30 11:56:38;;;;;;;9.07;1.75;;;24.00;79.20;;;;;;4918486;29;20203;-82
2023/06/30 11:59:05;;;;;;;4.30;1.58;;;24.10;78.30;;;;;;4918913;29;20322;-82
2023/06/30 12:01:31;;;;;;;6.15;1.60;;;24.10;77.70;;;;;;4934260;29;20175;-83
2023/06/30 12:04:08;;;;;;;6.53;1.50;;;24.20;77.20;;;;;;4902626;29;20195;-82
2023/06/30 12:06:35;;;;;;;3.97;1.67;;;24.30;77.30;;;;;;4929351;29;20676;-82
2023/06/30 12:09:02;;;;;;;4.20;1.77;;;24.30;77.00;;;;;;4900370;29;20203;-83
2023/06/30 12:11:30;;;;;;;5.07;1.77;;;24.40;75.90;;;;;;4905261;29;20203;-83
2023/06/30 12:13:55;;;;;;;6.68;1.73;;;24.40;75.20;;;;;;4919512;29;20183;-83
2023/06/30 12:16:25;;;;;;;6.03;1.70;;;24.40;75.10;;;;;;4934936;29;20202;-83
2023/06/30 12:18:54;;;;;;;6.20;1.90;;;24.40;74.70;;;;;;4918513;29;20707;-83
2023/06/30 12:21:19;;;;;;;7.50;1.95;;;24.40;74.00;;;;;;4935525;29;20175;-83
2023/06/30 12:23:45;;;;;;;4.30;2.22;;;24.50;73.80;;;;;;4935820;29;20192;-83
2023/06/30 12:26:12;;;;;;;5.75;1.75;;;24.50;73.90;;;;;;4935046;29;20222;-83
2023/06/30 12:28:39;;;;;;;4.85;1.52;;;24.50;72.90;;;;;;4928126;29;20246;-84
2023/06/30 12:31:04;;;;;;;5.28;1.60;;;24.50;71.90;;;;;;4919992;29;20272;-81
2023/06/30 12:33:30;;;;;;;5.47;1.60;;;24.50;71.50;;;;;;4939967;29;20521;-81
2023/06/30 12:35:56;;;;;;;4.45;1.60;;;24.50;70.90;;;;;;4889027;29;20176;-82
2023/06/30 12:38:22;;;;;;;4.18;2.00;;;24.40;70.50;;;;;;4888720;29;20219;-82
2023/06/30 12:40:52;;;;;;;6.38;2.08;;;24.40;71.00;;;;;;4903223;29;20578;-82
2023/06/30 12:43:18;;;;;;;3.83;1.67;;;24.40;70.90;;;;;;4919506;29;20647;-80